Airfield :
LOGIN :

Register | Disclaimer

   EN    FR    IT 

 










Legend :    VFR   Marginal VFR   IFR   Intensive IFR   Very Intensive IFR
Visi :
Ceiling :
>= 8 km
>= 3000ft
5 to 8 km
1000 to 3000 ft
1500m to 5 km
500 to 1000 ft
800 to 1500m
200 to 500 ft
< 800m
< 200 ft
Symbols :   Thunderstorms  Fog  Heavy snow  Heavy precipitations  Wind > 20 kt
SIGMETs :     Misc.  Thunderstorms  Icing  Turbulence  Mountain Waves  Volcanic Ashes







- Airport Elevation : 39 ft
- IATA code : ANR


EBAW - Anvers / Antwerpen Deurne

CURRENT METAR :
  • 190650Z 13003KT 8000 NSC 11/09 Q1010 NOSIG

EXPIRED METARs :
  • 190620Z 13004KT 7000 NSC 10/09 Q1010 NOSIG
  • 190550Z 12004KT 4000 BR NSC 11/10 Q1010 BECMG 6000 NSW
  • 190520Z 10003KT 3400 MIFG BR NSC 10/09 Q1010 TEMPO 2500 BR
  • 190450Z VRB02KT 2800 R11/1200U R29/P2000N BCFG BR NSC 10/09 Q1010 TEMPO 0800 FG
  • 190420Z AUTO 12003KT 1400 R11/1800D R29/P2000N BR NCD 11/10 Q1010

TAF TAF EBAW
Valid from the 19 at 06:00 until the 19 at 15:00 UTC


190510Z 1906/1915 14005KT 3500 BR NSC
PROB30
TEMPO 1906/1907 1200 BCFG
BECMG 1907/1909 9999 NSW
No reported NOTAMs for that airfield.



MET'MAP, your aeronautical weather chart ! - Copyright ORBIFLY December 2007 - Disclaimer

ORBIFLY MET'MAP TEAM :

Programming & Development : Alexandra Zaïnal
Concept & Development : Baudouin d'Aumeries
Co-Development & Prog : Marc-Olivier Méhu
Technical & hardware support : Manuel Goepfert

Contact : metmap@orbifly.com




SOURCES & CREDITS :

   NOAA